createdAt,value
2022-12-28T00:00:29.837Z,9.48
2022-12-28T00:01:30.038Z,9.48
2022-12-28T00:02:30.117Z,9.48
2022-12-28T00:03:30.337Z,9.50
2022-12-28T00:04:30.487Z,9.48
2022-12-28T00:05:30.648Z,9.50
2022-12-28T00:06:30.837Z,9.50
2022-12-28T00:07:31.037Z,9.51
2022-12-28T00:08:31.198Z,9.50
2022-12-28T00:09:31.400Z,9.48
2022-12-28T00:11:09.463Z,9.50
2022-12-28T00:11:32.738Z,9.46
2022-12-28T00:12:31.941Z,9.46
2022-12-28T00:13:32.118Z,9.44
2022-12-28T00:14:32.310Z,9.44
2022-12-28T00:15:32.440Z,9.43
2022-12-28T00:16:32.664Z,9.46
2022-12-28T00:17:32.784Z,9.46
2022-12-28T00:18:32.946Z,9.46
2022-12-28T00:19:33.146Z,9.50
2022-12-28T00:20:33.295Z,9.50
2022-12-28T00:21:33.487Z,9.48
2022-12-28T00:22:33.647Z,9.50
2022-12-28T00:23:33.839Z,9.48
2022-12-28T00:24:34.010Z,9.50
2022-12-28T00:25:34.167Z,9.50
2022-12-28T00:26:34.341Z,9.46
2022-12-28T00:27:34.497Z,9.46
2022-12-28T00:28:34.656Z,9.48
2022-12-28T00:29:34.908Z,9.50
2022-12-28T00:30:35.015Z,9.48
2022-12-28T00:31:35.253Z,9.47
2022-12-28T00:32:35.354Z,9.47
2022-12-28T00:33:35.544Z,9.44
2022-12-28T00:34:35.718Z,9.47
2022-12-28T00:35:35.889Z,9.47
2022-12-28T00:37:09.109Z,9.47
2022-12-28T00:37:37.234Z,9.51
2022-12-28T00:38:36.405Z,9.51
2022-12-28T00:39:36.583Z,9.55
2022-12-28T00:40:36.743Z,9.56
2022-12-28T00:41:36.903Z,9.54
2022-12-28T00:42:37.056Z,9.51
2022-12-28T00:43:37.250Z,9.55
2022-12-28T00:44:37.421Z,9.54
2022-12-28T00:45:37.597Z,9.56
2022-12-28T00:46:37.755Z,9.56
2022-12-28T00:47:38.014Z,9.56
2022-12-28T00:48:38.128Z,9.59
2022-12-28T00:49:38.330Z,9.61
2022-12-28T00:50:38.470Z,9.61
2022-12-28T00:51:38.674Z,9.62
2022-12-28T00:52:38.830Z,9.64
2022-12-28T00:53:38.993Z,9.64
2022-12-28T00:54:39.165Z,9.61
2022-12-28T00:55:39.332Z,9.62
2022-12-28T00:56:39.486Z,9.64
2022-12-28T00:57:39.672Z,9.61
2022-12-28T00:58:39.864Z,9.61
2022-12-28T00:59:40.040Z,9.61
2022-12-28T01:00:40.209Z,9.61
2022-12-28T01:01:40.480Z,9.59
2022-12-28T01:02:40.558Z,9.61
2022-12-28T01:03:40.715Z,9.61
2022-12-28T01:04:40.884Z,9.61
2022-12-28T01:05:41.062Z,9.61
2022-12-28T01:06:41.213Z,9.58
2022-12-28T01:07:41.407Z,9.56
2022-12-28T01:08:41.567Z,9.56
2022-12-28T01:09:41.723Z,9.58
2022-12-28T01:10:41.884Z,9.54
2022-12-28T01:11:42.075Z,9.54
2022-12-28T01:12:42.225Z,9.50
2022-12-28T01:13:42.425Z,9.48
2022-12-28T01:14:42.593Z,9.46
2022-12-28T01:15:42.758Z,9.44
2022-12-28T01:16:42.921Z,9.46
2022-12-28T01:17:43.092Z,9.43
2022-12-28T01:18:43.249Z,9.40
2022-12-28T01:19:46.218Z,9.39
2022-12-28T01:20:44.593Z,9.34
2022-12-28T01:21:43.773Z,9.36
2022-12-28T01:22:43.930Z,9.32
2022-12-28T01:23:44.183Z,9.32
2022-12-28T01:24:44.301Z,9.29
2022-12-28T01:25:44.470Z,9.25
2022-12-28T01:26:44.621Z,9.21
2022-12-28T01:27:44.815Z,9.18
2022-12-28T01:28:44.977Z,9.18
2022-12-28T01:29:45.188Z,9.14
2022-12-28T01:30:45.331Z,9.11
2022-12-28T01:31:45.587Z,9.13
2022-12-28T01:32:45.660Z,9.10
2022-12-28T01:33:45.850Z,9.06
2022-12-28T01:34:46.064Z,9.04
2022-12-28T01:35:46.230Z,9.02
2022-12-28T01:36:46.380Z,8.99
2022-12-28T01:37:46.553Z,8.97
2022-12-28T01:38:46.705Z,8.94
2022-12-28T01:39:46.915Z,8.91
2022-12-28T01:40:47.064Z,8.88
2022-12-28T01:41:47.259Z,8.85
2022-12-28T01:42:47.417Z,8.84
2022-12-28T01:43:47.610Z,8.84
2022-12-28T01:44:47.833Z,8.81
2022-12-28T01:45:48.016Z,8.82
2022-12-28T01:46:48.133Z,8.82
2022-12-28T01:47:48.320Z,8.81
2022-12-28T01:48:48.500Z,8.79
2022-12-28T01:49:48.712Z,8.78
2022-12-28T01:50:48.860Z,8.73
2022-12-28T01:51:49.051Z,8.71
2022-12-28T01:52:49.199Z,8.73
2022-12-28T01:53:49.398Z,8.71
2022-12-28T01:54:49.576Z,8.71
2022-12-28T01:55:49.737Z,8.71
2022-12-28T01:56:49.921Z,8.69
2022-12-28T01:57:50.115Z,8.67
2022-12-28T01:58:50.279Z,8.69
2022-12-28T01:59:50.472Z,8.69
2022-12-28T02:00:50.686Z,8.64
2022-12-28T02:01:50.951Z,8.64
2022-12-28T02:02:51.046Z,8.66
2022-12-28T02:03:51.179Z,8.63
2022-12-28T02:04:51.339Z,8.63
2022-12-28T02:05:51.498Z,8.66
2022-12-28T02:06:51.648Z,8.64
2022-12-28T02:07:51.847Z,8.66
2022-12-28T02:08:51.997Z,8.64
2022-12-28T02:10:43.778Z,8.63
2022-12-28T02:10:53.357Z,8.63
2022-12-28T02:11:52.534Z,8.61
2022-12-28T02:12:52.739Z,8.60
2022-12-28T02:13:52.870Z,8.61
2022-12-28T02:14:53.046Z,8.61
2022-12-28T02:15:53.207Z,8.61
2022-12-28T02:16:53.395Z,8.60
2022-12-28T02:17:53.527Z,8.60
2022-12-28T02:18:53.684Z,8.61
2022-12-28T02:19:53.855Z,8.61
2022-12-28T02:20:54.016Z,8.61
2022-12-28T02:21:54.207Z,8.60
2022-12-28T02:22:54.365Z,8.56
2022-12-28T02:23:54.556Z,8.56
2022-12-28T02:25:11.336Z,8.60
2022-12-28T02:25:55.915Z,8.55
2022-12-28T02:26:55.090Z,8.58
2022-12-28T02:27:55.272Z,8.58
2022-12-28T02:28:55.449Z,8.56
2022-12-28T02:29:55.639Z,8.58
2022-12-28T02:30:55.809Z,8.58
2022-12-28T02:31:55.955Z,8.58
2022-12-28T02:32:56.105Z,8.61
2022-12-28T02:33:56.298Z,8.63
2022-12-28T02:34:56.476Z,8.63
2022-12-28T02:35:56.635Z,8.64
2022-12-28T02:36:56.782Z,8.66
2022-12-28T02:37:56.954Z,8.64
2022-12-28T02:38:57.112Z,8.63
2022-12-28T02:39:57.314Z,8.64
2022-12-28T02:40:57.478Z,8.63
2022-12-28T02:41:57.666Z,8.61
2022-12-28T02:42:57.833Z,8.61
2022-12-28T02:43:58.025Z,8.61
2022-12-28T02:44:58.195Z,8.58
2022-12-28T02:45:58.393Z,8.60
2022-12-28T02:46:58.539Z,8.60
2022-12-28T02:47:58.732Z,8.61
2022-12-28T02:48:58.883Z,8.63
2022-12-28T02:49:59.070Z,8.63
2022-12-28T02:50:59.220Z,8.63
2022-12-28T02:51:59.373Z,8.61
2022-12-28T02:52:59.532Z,8.63
2022-12-28T02:53:59.730Z,8.64
2022-12-28T02:54:59.893Z,8.64
2022-12-28T02:56:00.052Z,8.63
2022-12-28T02:57:00.202Z,8.64
2022-12-28T02:58:00.403Z,8.64
2022-12-28T02:59:00.563Z,8.61
2022-12-28T03:00:00.772Z,8.60
2022-12-28T03:01:01.015Z,8.58
2022-12-28T03:02:01.150Z,8.55
2022-12-28T03:03:01.401Z,8.56
2022-12-28T03:04:01.462Z,8.55
2022-12-28T03:05:01.635Z,8.55
2022-12-28T03:06:01.791Z,8.53
2022-12-28T03:07:01.948Z,8.52
2022-12-28T03:08:02.138Z,8.55
2022-12-28T03:09:02.321Z,8.55
2022-12-28T03:10:02.534Z,8.53
2022-12-28T03:11:02.681Z,8.52
2022-12-28T03:12:02.899Z,8.55
2022-12-28T03:13:03.053Z,8.52
2022-12-28T03:14:03.211Z,8.53
2022-12-28T03:15:03.398Z,8.53
2022-12-28T03:16:03.609Z,8.53
2022-12-28T03:17:03.737Z,8.55
2022-12-28T03:18:03.947Z,8.55
2022-12-28T03:19:04.090Z,8.56
2022-12-28T03:20:04.290Z,8.55
2022-12-28T03:21:04.451Z,8.55
2022-12-28T03:22:04.640Z,8.55
2022-12-28T03:23:04.793Z,8.55
2022-12-28T03:24:04.978Z,8.56
2022-12-28T03:25:05.149Z,8.56
2022-12-28T03:26:05.319Z,8.56
2022-12-28T03:27:05.466Z,8.56
2022-12-28T03:28:05.659Z,8.55
2022-12-28T03:29:05.811Z,8.53
2022-12-28T03:30:06.015Z,8.56
2022-12-28T03:31:06.213Z,8.52
2022-12-28T03:32:06.340Z,8.55
2022-12-28T03:33:06.533Z,8.52
2022-12-28T03:34:06.953Z,8.53
2022-12-28T03:35:06.919Z,8.52
2022-12-28T03:36:07.079Z,8.51
2022-12-28T03:37:07.247Z,8.52
2022-12-28T03:38:07.420Z,8.51
2022-12-28T03:39:07.609Z,8.51
2022-12-28T03:40:07.784Z,8.51
2022-12-28T03:41:07.947Z,8.52
2022-12-28T03:42:08.099Z,8.48
2022-12-28T03:43:08.356Z,8.48
2022-12-28T03:44:08.450Z,8.44
2022-12-28T03:45:08.668Z,8.45
2022-12-28T03:46:08.876Z,8.44
2022-12-28T03:47:08.998Z,8.42
2022-12-28T03:48:09.156Z,8.42
2022-12-28T03:49:09.355Z,8.42
2022-12-28T03:50:09.522Z,8.44
2022-12-28T03:51:09.679Z,8.44
2022-12-28T03:52:09.840Z,8.38
2022-12-28T03:53:10.039Z,8.38
2022-12-28T03:54:10.196Z,8.41
2022-12-28T03:55:10.412Z,8.41
2022-12-28T03:56:10.571Z,8.38
2022-12-28T03:57:10.777Z,8.37
2022-12-28T03:58:10.922Z,8.38
2022-12-28T03:59:11.108Z,8.38
2022-12-28T04:00:11.279Z,8.38
2022-12-28T04:01:11.558Z,8.38
2022-12-28T04:02:11.731Z,8.37
2022-12-28T04:03:11.868Z,8.41
2022-12-28T04:04:11.981Z,8.37
2022-12-28T04:05:12.187Z,8.38
2022-12-28T04:06:12.348Z,8.37
2022-12-28T04:07:12.536Z,8.36
2022-12-28T04:08:12.695Z,8.36
2022-12-28T04:09:12.888Z,8.34
2022-12-28T04:10:13.057Z,8.34
2022-12-28T04:11:13.223Z,8.36
2022-12-28T04:12:13.377Z,8.36
2022-12-28T04:13:13.566Z,8.36
2022-12-28T04:14:13.725Z,8.34
2022-12-28T04:15:13.937Z,8.36
2022-12-28T04:16:14.173Z,8.33
2022-12-28T04:17:14.291Z,8.34
2022-12-28T04:18:14.467Z,8.34
2022-12-28T04:19:14.655Z,8.34
2022-12-28T04:20:14.867Z,8.33
2022-12-28T04:21:15.027Z,8.33
2022-12-28T04:22:15.217Z,8.33
2022-12-28T04:23:15.388Z,8.36
2022-12-28T04:24:15.528Z,8.38
2022-12-28T04:25:15.735Z,8.36
2022-12-28T04:26:15.895Z,8.34
2022-12-28T04:27:16.082Z,8.34
2022-12-28T04:28:16.233Z,8.34
2022-12-28T04:29:16.424Z,8.33
2022-12-28T04:30:16.626Z,8.34
2022-12-28T04:31:16.824Z,8.33
2022-12-28T04:32:16.959Z,8.30
2022-12-28T04:33:17.157Z,8.31
2022-12-28T04:34:17.311Z,8.34
2022-12-28T04:35:17.505Z,8.34
2022-12-28T04:36:17.664Z,8.33
2022-12-28T04:37:17.857Z,8.34
2022-12-28T04:38:18.023Z,8.30
2022-12-28T04:39:18.196Z,8.31
2022-12-28T04:40:18.398Z,8.30
2022-12-28T04:41:18.558Z,8.31
2022-12-28T04:42:18.704Z,8.33
2022-12-28T04:43:18.897Z,8.31
2022-12-28T04:44:19.055Z,8.33
2022-12-28T04:45:22.229Z,8.33
2022-12-28T04:46:19.435Z,8.34
2022-12-28T04:47:19.591Z,8.33
2022-12-28T04:48:19.744Z,8.36
2022-12-28T04:49:19.909Z,8.36
2022-12-28T04:50:20.072Z,8.34
2022-12-28T04:51:20.234Z,8.36
2022-12-28T04:52:20.385Z,8.37
2022-12-28T04:53:20.583Z,8.36
2022-12-28T04:54:20.781Z,8.37
2022-12-28T04:55:32.254Z,8.38
2022-12-28T04:56:22.101Z,8.38
2022-12-28T04:57:21.291Z,8.41
2022-12-28T04:58:21.463Z,8.38
2022-12-28T04:59:21.630Z,8.42
2022-12-28T05:00:21.805Z,8.41
2022-12-28T05:01:22.024Z,8.38
2022-12-28T05:02:22.227Z,8.42
2022-12-28T05:03:22.312Z,8.41
2022-12-28T05:04:22.476Z,8.44
2022-12-28T05:05:22.674Z,8.45
2022-12-28T05:06:22.832Z,8.46
2022-12-28T05:07:23.032Z,8.49
2022-12-28T05:08:23.180Z,8.48
2022-12-28T05:09:23.371Z,8.48
2022-12-28T05:10:23.546Z,8.52
2022-12-28T05:11:23.706Z,8.53
2022-12-28T05:12:23.896Z,8.55
2022-12-28T05:13:24.052Z,8.58
2022-12-28T05:14:24.217Z,8.56
2022-12-28T05:15:24.411Z,8.58
2022-12-28T05:16:24.662Z,8.61
2022-12-28T05:17:24.778Z,8.63
2022-12-28T05:18:24.915Z,8.64
2022-12-28T05:19:25.075Z,8.69
2022-12-28T05:20:25.253Z,8.66
2022-12-28T05:21:25.401Z,8.69
2022-12-28T05:22:25.551Z,8.70
2022-12-28T05:23:25.749Z,8.69
2022-12-28T05:24:25.900Z,8.70
2022-12-28T05:25:26.124Z,8.70
2022-12-28T05:26:26.261Z,8.71
2022-12-28T05:27:26.454Z,8.74
2022-12-28T05:28:26.611Z,8.78
2022-12-28T05:29:26.802Z,8.76
2022-12-28T05:30:26.969Z,8.74
2022-12-28T05:31:27.219Z,8.76
2022-12-28T05:32:27.279Z,8.81
2022-12-28T05:33:27.480Z,8.81
2022-12-28T05:34:27.631Z,8.81
2022-12-28T05:35:27.842Z,8.79
2022-12-28T05:36:27.999Z,8.84
2022-12-28T05:37:28.164Z,8.87
2022-12-28T05:38:28.340Z,8.87
2022-12-28T05:39:28.569Z,8.89
2022-12-28T05:40:28.709Z,8.92
2022-12-28T05:41:28.908Z,8.95
2022-12-28T05:42:29.059Z,8.97
2022-12-28T05:43:29.250Z,8.97
2022-12-28T05:44:29.433Z,8.99
2022-12-28T05:45:29.600Z,8.97
2022-12-28T05:46:29.777Z,8.99
2022-12-28T05:47:29.949Z,9.02
2022-12-28T05:48:30.100Z,9.04
2022-12-28T05:49:30.310Z,9.06
2022-12-28T05:50:30.489Z,9.06
2022-12-28T05:51:30.658Z,9.06
2022-12-28T05:52:30.812Z,9.06
2022-12-28T05:53:31.002Z,9.06
2022-12-28T05:54:31.191Z,9.08
2022-12-28T05:55:31.400Z,9.11
2022-12-28T05:56:31.549Z,9.10
2022-12-28T05:57:31.740Z,9.10
2022-12-28T05:58:31.930Z,9.13
2022-12-28T05:59:32.128Z,9.11
2022-12-28T06:00:32.305Z,9.13
2022-12-28T06:01:32.653Z,9.11
2022-12-28T06:02:32.673Z,9.13
2022-12-28T06:03:32.887Z,9.16
2022-12-28T06:04:32.998Z,9.19
2022-12-28T06:05:33.161Z,9.19
2022-12-28T06:06:33.320Z,9.21
2022-12-28T06:07:33.507Z,9.21
2022-12-28T06:08:33.697Z,9.18
2022-12-28T06:09:33.898Z,9.18
2022-12-28T06:10:34.067Z,9.23
2022-12-28T06:11:34.251Z,9.26
2022-12-28T06:12:34.411Z,9.28
2022-12-28T06:13:34.606Z,9.28
2022-12-28T06:14:34.787Z,9.32
2022-12-28T06:15:34.928Z,9.31
2022-12-28T06:16:35.122Z,9.32
2022-12-28T06:17:35.266Z,9.34
2022-12-28T06:18:35.426Z,9.29
2022-12-28T06:19:35.615Z,9.32
2022-12-28T06:20:35.776Z,9.36
2022-12-28T06:21:35.941Z,9.39
2022-12-28T06:22:36.134Z,9.39
2022-12-28T06:23:36.266Z,9.40
2022-12-28T06:24:36.429Z,9.41
2022-12-28T06:25:36.626Z,9.41
2022-12-28T06:26:36.801Z,9.41
2022-12-28T06:27:36.976Z,9.43
2022-12-28T06:28:37.141Z,9.44
2022-12-28T06:29:37.296Z,9.44
2022-12-28T06:30:37.464Z,9.44
2022-12-28T06:31:37.679Z,9.46
2022-12-28T06:32:37.782Z,9.50
2022-12-28T06:33:37.974Z,9.50
2022-12-28T06:34:38.141Z,9.51
2022-12-28T06:35:38.295Z,9.51
2022-12-28T06:36:38.458Z,9.54
2022-12-28T06:37:38.639Z,9.54
2022-12-28T06:38:38.766Z,9.51
2022-12-28T06:39:38.953Z,9.54
2022-12-28T06:41:11.603Z,9.56
2022-12-28T06:41:40.295Z,9.56
2022-12-28T06:42:39.456Z,9.58
2022-12-28T06:43:39.658Z,9.58
2022-12-28T06:44:44.498Z,9.55
2022-12-28T06:45:41.040Z,9.55
2022-12-28T06:46:40.171Z,9.54
2022-12-28T06:47:40.351Z,9.55
2022-12-28T06:48:40.594Z,9.54
2022-12-28T06:49:40.715Z,9.55
2022-12-28T06:50:40.921Z,9.55
2022-12-28T06:51:41.081Z,9.54
2022-12-28T06:52:41.262Z,9.51
2022-12-28T06:53:41.460Z,9.51
2022-12-28T06:54:41.633Z,9.54
2022-12-28T06:55:41.816Z,9.50
2022-12-28T06:56:41.982Z,9.48
2022-12-28T06:57:42.171Z,9.46
2022-12-28T06:58:42.346Z,9.46
2022-12-28T06:59:42.527Z,9.41
2022-12-28T07:00:42.681Z,9.37
2022-12-28T07:01:42.953Z,9.39
2022-12-28T07:02:43.116Z,9.39
2022-12-28T07:03:43.222Z,9.34
2022-12-28T07:04:43.391Z,9.37
2022-12-28T07:05:43.579Z,9.39
2022-12-28T07:06:43.783Z,9.40
2022-12-28T07:07:43.913Z,9.39
2022-12-28T07:08:44.095Z,9.37
2022-12-28T07:09:44.269Z,9.37
2022-12-28T07:10:44.446Z,9.37
2022-12-28T07:11:44.695Z,9.39
2022-12-28T07:12:44.801Z,9.39
2022-12-28T07:13:44.982Z,9.36
2022-12-28T07:14:45.156Z,9.34
2022-12-28T07:15:45.327Z,9.37
2022-12-28T07:16:45.510Z,9.37
2022-12-28T07:17:45.693Z,9.37
2022-12-28T07:18:45.857Z,9.41
2022-12-28T07:19:46.040Z,9.43
2022-12-28T07:20:46.210Z,9.44
2022-12-28T07:21:46.420Z,9.44
2022-12-28T07:22:46.581Z,9.43
2022-12-28T07:23:46.753Z,9.41
2022-12-28T07:24:46.956Z,9.41
2022-12-28T07:25:47.120Z,9.41
2022-12-28T07:26:47.348Z,9.44
2022-12-28T07:27:47.496Z,9.46
2022-12-28T07:28:47.657Z,9.47
2022-12-28T07:29:47.849Z,9.48
2022-12-28T07:30:48.071Z,9.51
2022-12-28T07:31:48.225Z,9.50
2022-12-28T07:32:48.359Z,9.48
2022-12-28T07:33:48.553Z,9.54
2022-12-28T07:34:48.703Z,9.54
2022-12-28T07:35:48.868Z,9.54
2022-12-28T07:36:49.062Z,9.54
2022-12-28T07:37:49.238Z,9.54
2022-12-28T07:38:49.431Z,9.56
2022-12-28T07:39:49.607Z,9.55
2022-12-28T07:40:49.760Z,9.58
2022-12-28T07:41:50.010Z,9.61
2022-12-28T07:42:50.106Z,9.59
2022-12-28T07:43:50.299Z,9.59
2022-12-28T07:44:50.473Z,9.61
2022-12-28T07:45:50.714Z,9.61
2022-12-28T07:46:50.839Z,9.64
2022-12-28T07:47:50.977Z,9.64
2022-12-28T07:48:51.168Z,9.62
2022-12-28T07:49:51.366Z,9.61
2022-12-28T07:50:51.508Z,9.61
2022-12-28T07:51:51.688Z,9.59
2022-12-28T07:52:51.883Z,9.62
2022-12-28T07:53:52.074Z,9.64
2022-12-28T07:54:52.295Z,9.64
2022-12-28T07:55:52.436Z,9.65
2022-12-28T07:56:52.688Z,9.68
2022-12-28T07:57:52.781Z,9.66
2022-12-28T07:59:30.917Z,9.72
2022-12-28T08:00:27.632Z,9.73
2022-12-28T08:01:27.881Z,9.74
2022-12-28T08:02:28.117Z,9.74
2022-12-28T08:03:28.178Z,9.77
2022-12-28T08:04:28.353Z,9.79
2022-12-28T08:05:28.534Z,9.77
2022-12-28T08:06:28.740Z,9.80
2022-12-28T08:07:28.874Z,9.80
2022-12-28T08:08:29.067Z,9.83
2022-12-28T08:09:29.222Z,9.84
2022-12-28T08:10:29.424Z,9.84
2022-12-28T08:11:29.613Z,9.87
2022-12-28T08:12:29.755Z,9.89
2022-12-28T08:13:29.935Z,9.89
2022-12-28T08:14:30.104Z,9.94
2022-12-28T08:15:30.345Z,9.97
2022-12-28T08:16:30.477Z,9.94
2022-12-28T08:17:30.614Z,9.94
2022-12-28T08:18:30.808Z,9.97
2022-12-28T08:19:30.990Z,9.95
2022-12-28T08:20:31.167Z,9.95
2022-12-28T08:21:31.360Z,9.97
2022-12-28T08:22:31.514Z,9.99
2022-12-28T08:23:31.671Z,9.98
2022-12-28T08:24:31.865Z,10.02
2022-12-28T08:25:32.015Z,10.05
2022-12-28T08:26:32.204Z,10.04
2022-12-28T08:27:38.304Z,10.05
2022-12-28T08:28:33.512Z,10.07
2022-12-28T08:29:32.710Z,10.07
2022-12-28T08:30:32.889Z,10.04
2022-12-28T08:31:33.090Z,10.05
2022-12-28T08:32:33.219Z,10.05
2022-12-28T08:33:33.372Z,10.05
2022-12-28T08:34:33.542Z,10.10
2022-12-28T08:35:33.700Z,10.12
2022-12-28T08:36:33.898Z,10.16
2022-12-28T08:37:34.033Z,10.19
2022-12-28T08:38:34.222Z,10.20
2022-12-28T08:39:34.392Z,10.23
2022-12-28T08:40:34.581Z,10.25
2022-12-28T08:41:34.778Z,10.22
2022-12-28T08:42:34.951Z,10.23
2022-12-28T08:43:35.133Z,10.23
2022-12-28T08:44:35.296Z,10.22
2022-12-28T08:45:35.476Z,10.26
2022-12-28T08:46:35.736Z,10.30
2022-12-28T08:47:35.810Z,10.33
2022-12-28T08:48:36.006Z,10.40
2022-12-28T08:49:36.170Z,10.49
2022-12-28T08:50:36.367Z,10.54
2022-12-28T08:51:36.551Z,10.57
2022-12-28T08:52:36.725Z,10.60
2022-12-28T08:53:36.900Z,10.67
2022-12-28T08:54:37.092Z,10.71
2022-12-28T08:55:37.270Z,10.74
2022-12-28T08:56:37.486Z,10.75
2022-12-28T08:57:37.643Z,10.76
2022-12-28T08:58:37.802Z,10.78
2022-12-28T08:59:37.990Z,10.79
2022-12-28T09:00:38.177Z,10.82
2022-12-28T09:01:43.845Z,10.87
2022-12-28T09:02:39.836Z,10.89
2022-12-28T09:03:38.750Z,10.92
2022-12-28T09:04:38.889Z,10.92
2022-12-28T09:05:39.833Z,10.94
2022-12-28T09:06:39.276Z,10.96
2022-12-28T09:07:39.420Z,10.96
2022-12-28T09:08:39.608Z,10.97
2022-12-28T09:09:39.799Z,10.94
2022-12-28T09:10:39.931Z,10.99
2022-12-28T09:11:40.139Z,11.02
2022-12-28T09:12:40.351Z,11.04
2022-12-28T09:13:40.464Z,11.08
2022-12-28T09:14:40.648Z,11.14
2022-12-28T09:15:40.855Z,11.17
2022-12-28T09:16:41.009Z,11.18
2022-12-28T09:17:41.153Z,11.18
2022-12-28T09:18:41.335Z,11.22
2022-12-28T09:19:41.513Z,11.23
2022-12-28T09:20:47.517Z,11.26
2022-12-28T09:21:42.869Z,11.26
2022-12-28T09:22:42.028Z,11.27
2022-12-28T09:23:42.208Z,11.27
2022-12-28T09:24:42.394Z,11.29
2022-12-28T09:25:42.568Z,11.33
2022-12-28T09:26:42.779Z,11.33
2022-12-28T09:27:42.917Z,11.35
2022-12-28T09:28:43.100Z,11.33
2022-12-28T09:29:43.272Z,11.36
2022-12-28T09:30:43.458Z,11.40
2022-12-28T09:31:43.753Z,11.36
2022-12-28T09:32:43.818Z,11.40
2022-12-28T09:34:13.902Z,11.37
2022-12-28T09:34:45.220Z,11.41
2022-12-28T09:35:44.369Z,11.43
2022-12-28T09:36:44.563Z,11.44
2022-12-28T09:37:44.738Z,11.44
2022-12-28T09:38:44.940Z,11.50
2022-12-28T09:39:45.118Z,11.45
2022-12-28T09:40:45.280Z,11.45
2022-12-28T09:41:45.455Z,11.48
2022-12-28T09:42:45.589Z,11.48
2022-12-28T09:43:45.804Z,11.52
2022-12-28T09:44:45.971Z,11.52
2022-12-28T09:45:46.159Z,11.54
2022-12-28T09:46:48.902Z,11.57
2022-12-28T09:47:46.479Z,11.55
2022-12-28T09:48:46.658Z,11.57
2022-12-28T09:49:46.858Z,11.57
2022-12-28T09:50:47.040Z,11.57
2022-12-28T09:51:47.217Z,11.59
2022-12-28T09:52:49.849Z,11.60
2022-12-28T09:53:47.582Z,11.62
2022-12-28T09:54:47.777Z,11.60
2022-12-28T09:55:47.918Z,11.62
2022-12-28T09:56:48.112Z,11.65
2022-12-28T09:57:48.287Z,11.65
2022-12-28T09:58:48.459Z,11.68
2022-12-28T09:59:48.655Z,11.69
2022-12-28T10:00:48.808Z,11.72
2022-12-28T10:01:49.066Z,11.75
2022-12-28T10:02:49.248Z,11.80
2022-12-28T10:03:49.334Z,11.84
2022-12-28T10:04:49.654Z,11.86
2022-12-28T10:05:49.697Z,11.88
2022-12-28T10:06:49.847Z,11.91
2022-12-28T10:07:50.038Z,11.94
2022-12-28T10:08:50.226Z,11.94
2022-12-28T10:09:50.425Z,11.95
2022-12-28T10:10:50.579Z,11.94
2022-12-28T10:11:50.752Z,11.94
2022-12-28T10:12:50.928Z,11.99
2022-12-28T10:13:55.394Z,12.03
2022-12-28T10:14:52.316Z,12.06
2022-12-28T10:15:51.668Z,12.13
2022-12-28T10:16:51.666Z,12.12
2022-12-28T10:17:51.800Z,12.15
2022-12-28T10:18:51.988Z,12.18
2022-12-28T10:19:52.191Z,12.18
2022-12-28T10:20:52.324Z,12.20
2022-12-28T10:21:52.496Z,12.22
2022-12-28T10:22:52.697Z,12.25
2022-12-28T10:24:54.081Z,12.28
2022-12-28T10:25:53.236Z,12.29
2022-12-28T10:26:53.417Z,12.31
2022-12-28T10:27:53.607Z,12.36
2022-12-28T10:28:53.798Z,12.37
2022-12-28T10:29:53.994Z,12.42
2022-12-28T10:30:54.140Z,12.39
2022-12-28T10:31:54.318Z,12.37
2022-12-28T10:32:59.680Z,12.32
2022-12-28T10:33:55.656Z,12.31
2022-12-28T10:34:54.864Z,12.28
2022-12-28T10:35:55.012Z,12.31
2022-12-28T10:36:55.205Z,12.27
2022-12-28T10:37:55.373Z,12.28
2022-12-28T10:38:55.557Z,12.29
2022-12-28T10:39:55.772Z,12.29
2022-12-28T10:40:55.906Z,12.32
2022-12-28T10:41:56.095Z,12.36
2022-12-28T10:42:56.274Z,12.39
2022-12-28T10:44:29.227Z,12.42
2022-12-28T10:44:57.633Z,12.43
2022-12-28T10:45:56.786Z,12.45
2022-12-28T10:46:57.015Z,12.53
2022-12-28T10:47:57.148Z,12.54
2022-12-28T10:48:57.344Z,12.61
2022-12-28T10:50:58.737Z,12.70
2022-12-28T10:51:57.905Z,12.76
2022-12-28T10:52:58.060Z,12.79
2022-12-28T10:53:58.266Z,12.85
2022-12-28T10:55:08.475Z,12.90
2022-12-28T10:55:59.573Z,12.93
2022-12-28T10:56:58.784Z,12.95
2022-12-28T10:59:00.144Z,13.03
2022-12-28T10:59:59.316Z,13.11
2022-12-28T11:00:59.580Z,13.15
2022-12-28T11:01:59.777Z,13.18
2022-12-28T11:02:59.946Z,13.23
2022-12-28T11:04:00.031Z,13.27
2022-12-28T11:05:00.180Z,13.28
2022-12-28T11:06:00.328Z,13.31
2022-12-28T11:07:00.525Z,13.33
2022-12-28T11:08:00.698Z,13.37
2022-12-28T11:09:00.874Z,13.41
2022-12-28T11:10:01.100Z,13.47
2022-12-28T11:11:01.236Z,13.52
2022-12-28T11:12:01.395Z,13.50
2022-12-28T11:13:01.568Z,13.49
2022-12-28T11:14:01.708Z,13.52
2022-12-28T11:15:01.886Z,13.50
2022-12-28T11:16:02.124Z,13.49
2022-12-28T11:17:02.228Z,13.47
2022-12-28T11:18:02.420Z,13.44
2022-12-28T11:19:02.584Z,13.42
2022-12-28T11:20:02.794Z,13.38
2022-12-28T11:21:02.932Z,13.37
2022-12-28T11:22:03.112Z,13.30
2022-12-28T11:23:03.296Z,13.31
2022-12-28T11:24:03.489Z,13.28
2022-12-28T11:25:03.652Z,13.28
2022-12-28T11:26:03.801Z,13.28
2022-12-28T11:27:03.985Z,13.31
2022-12-28T11:28:04.163Z,13.30
2022-12-28T11:29:04.347Z,13.30
2022-12-28T11:30:04.570Z,13.30
2022-12-28T11:31:04.703Z,13.30
2022-12-28T11:32:04.893Z,13.27
2022-12-28T11:33:05.056Z,13.25
2022-12-28T11:34:05.222Z,13.22
2022-12-28T11:35:05.362Z,13.18
2022-12-28T11:36:09.938Z,13.18
2022-12-28T11:37:05.703Z,13.18
2022-12-28T11:38:05.900Z,13.13
2022-12-28T11:39:06.042Z,13.09
2022-12-28T11:40:06.235Z,13.08
2022-12-28T11:41:06.455Z,13.04
2022-12-28T11:43:07.769Z,13.01
2022-12-28T11:44:06.914Z,13.01
2022-12-28T11:45:07.093Z,13.00
2022-12-28T11:46:07.328Z,12.95
2022-12-28T11:47:07.443Z,12.95
2022-12-28T11:48:07.642Z,12.94
2022-12-28T11:49:07.792Z,12.91
2022-12-28T11:50:07.974Z,12.86
2022-12-28T11:51:08.152Z,12.86
2022-12-28T11:52:08.343Z,12.85
2022-12-28T11:53:13.720Z,12.80
2022-12-28T11:54:09.703Z,12.82
2022-12-28T11:55:08.850Z,12.83
2022-12-28T11:56:09.051Z,12.85
2022-12-28T11:57:09.198Z,12.87
2022-12-28T11:58:09.402Z,12.90
2022-12-28T11:59:09.562Z,12.94
2022-12-28T12:00:09.728Z,12.97
2022-12-28T12:01:09.967Z,12.97
2022-12-28T12:02:10.117Z,12.98
2022-12-28T12:03:10.346Z,13.03
2022-12-28T12:04:10.454Z,13.05
2022-12-28T12:05:10.630Z,13.08
2022-12-28T12:06:10.813Z,13.09
2022-12-28T12:07:10.992Z,13.12
2022-12-28T12:08:11.204Z,13.12
2022-12-28T12:09:11.345Z,13.12
2022-12-28T12:10:11.561Z,13.09
2022-12-28T12:11:11.694Z,13.13
2022-12-28T12:12:17.268Z,13.12
2022-12-28T12:13:13.031Z,13.09
2022-12-28T12:14:12.226Z,13.13
2022-12-28T12:15:12.411Z,13.18
2022-12-28T12:16:12.564Z,13.20
2022-12-28T12:17:12.750Z,13.25
2022-12-28T12:18:12.923Z,13.28
2022-12-28T12:19:13.084Z,13.35
2022-12-28T12:20:13.314Z,13.41
2022-12-28T12:21:16.056Z,13.47
2022-12-28T12:22:13.582Z,13.50
2022-12-28T12:23:13.760Z,13.50
2022-12-28T12:24:13.942Z,13.56
2022-12-28T12:25:14.133Z,13.57
2022-12-28T12:26:14.282Z,13.63
2022-12-28T12:27:14.461Z,13.68
2022-12-28T12:28:14.661Z,13.71
2022-12-28T12:29:14.839Z,13.71
2022-12-28T12:30:15.005Z,13.71
2022-12-28T12:31:15.248Z,13.72
2022-12-28T12:32:15.373Z,13.72
2022-12-28T12:33:15.570Z,13.72
2022-12-28T12:34:19.492Z,13.75
2022-12-28T12:35:15.884Z,13.74
2022-12-28T12:36:16.074Z,13.72
2022-12-28T12:37:16.254Z,13.75
2022-12-28T12:38:16.443Z,13.79
2022-12-28T12:39:16.591Z,13.79
2022-12-28T12:40:16.772Z,13.81
2022-12-28T12:41:16.958Z,13.85
2022-12-28T12:42:17.121Z,13.86
2022-12-28T12:43:17.315Z,13.87
2022-12-28T12:44:17.477Z,13.89
2022-12-28T12:45:17.652Z,13.90
2022-12-28T12:46:17.907Z,13.95
2022-12-28T12:47:18.012Z,13.93
2022-12-28T12:48:18.223Z,13.95
2022-12-28T12:49:18.362Z,13.97
2022-12-28T12:50:18.572Z,13.97
2022-12-28T12:51:18.711Z,13.97
2022-12-28T12:52:18.889Z,13.97
2022-12-28T12:53:19.061Z,13.99
2022-12-28T12:54:19.253Z,14.00
2022-12-28T12:55:19.452Z,14.04
2022-12-28T12:56:19.622Z,14.04
2022-12-28T12:57:19.803Z,14.04
2022-12-28T12:58:19.988Z,14.03
2022-12-28T12:59:20.176Z,14.03
2022-12-28T13:00:20.382Z,14.05
2022-12-28T13:01:20.609Z,14.07
2022-12-28T13:02:20.941Z,14.04
2022-12-28T13:03:20.947Z,13.99
2022-12-28T13:04:21.054Z,13.97
2022-12-28T13:05:21.239Z,13.95
2022-12-28T13:06:21.415Z,13.90
2022-12-28T13:07:21.604Z,13.89
2022-12-28T13:08:21.791Z,13.87
2022-12-28T13:09:21.931Z,13.87
2022-12-28T13:10:22.120Z,13.83
2022-12-28T13:11:22.306Z,13.79
2022-12-28T13:12:22.491Z,13.77
2022-12-28T13:13:22.682Z,13.71
2022-12-28T13:14:22.837Z,13.68
2022-12-28T13:15:23.023Z,13.67